createdAt,value
2022-09-07T00:00:08.011Z,99231.16
2022-09-07T00:00:20.000Z,99230.19
2022-09-07T00:00:32.128Z,99235.50
2022-09-07T00:00:44.423Z,99234.78
2022-09-07T00:00:56.527Z,99242.00
2022-09-07T00:01:08.896Z,99233.63
2022-09-07T00:01:20.999Z,99230.97
2022-09-07T00:01:32.975Z,99236.41
2022-09-07T00:01:45.465Z,99231.97
2022-09-07T00:01:57.428Z,99233.91
2022-09-07T00:02:09.437Z,99233.91
2022-09-07T00:02:22.425Z,99234.16
2022-09-07T00:02:34.462Z,99236.09
2022-09-07T00:02:46.536Z,99239.56
2022-09-07T00:02:58.674Z,99242.47
2022-09-07T00:03:11.070Z,99243.44
2022-09-07T00:03:23.471Z,99236.59
2022-09-07T00:03:35.674Z,99240.00
2022-09-07T00:03:47.752Z,99237.13
2022-09-07T00:04:00.662Z,99240.06
2022-09-07T00:04:12.795Z,99238.16
2022-09-07T00:04:27.789Z,99238.88
2022-09-07T00:04:39.969Z,99245.84
2022-09-07T00:04:52.001Z,99249.22
2022-09-07T00:05:04.248Z,99248.94
2022-09-07T00:05:16.269Z,99240.06
2022-09-07T00:05:29.088Z,99244.34
2022-09-07T00:05:43.140Z,99243.41
2022-09-07T00:05:55.636Z,99243.41
2022-09-07T00:06:09.897Z,99243.16
2022-09-07T00:06:22.057Z,99250.94
2022-09-07T00:06:36.940Z,99245.66
2022-09-07T00:06:48.921Z,99240.25
2022-09-07T00:07:00.892Z,99247.34
2022-09-07T00:07:12.958Z,99242.91
2022-09-07T00:07:24.939Z,99241.22
2022-09-07T00:07:37.043Z,99245.66
2022-09-07T00:07:49.061Z,99247.72
2022-09-07T00:08:01.205Z,99242.44
2022-09-07T00:08:14.517Z,99242.56
2022-09-07T00:08:27.383Z,99246.75
2022-09-07T00:08:41.073Z,99243.41
2022-09-07T00:08:53.107Z,99246.75
2022-09-07T00:09:05.138Z,99238.94
2022-09-07T00:09:17.132Z,99245.25
2022-09-07T00:09:29.116Z,99249.72
2022-09-07T00:09:41.283Z,99240.81
2022-09-07T00:09:53.280Z,99249.72
2022-09-07T00:10:05.737Z,99246.38
2022-09-07T00:10:17.833Z,99250.22
2022-09-07T00:10:29.839Z,99249.13
2022-09-07T00:10:42.032Z,99247.47
2022-09-07T00:10:56.988Z,99251.06
2022-09-07T00:11:14.608Z,99247.81
2022-09-07T00:11:26.685Z,99249.53
2022-09-07T00:11:38.779Z,99250.47
2022-09-07T00:11:50.819Z,99245.44
2022-09-07T00:12:03.003Z,99242.94
2022-09-07T00:12:15.127Z,99250.03
2022-09-07T00:12:27.159Z,99246.66
2022-09-07T00:12:39.387Z,99249.31
2022-09-07T00:12:52.324Z,99243.31
2022-09-07T00:13:05.585Z,99253.19
2022-09-07T00:13:17.588Z,99245.75
2022-09-07T00:13:32.761Z,99249.47
2022-09-07T00:13:49.560Z,99239.75
2022-09-07T00:14:03.836Z,99245.03
2022-09-07T00:14:15.803Z,99240.00
2022-09-07T00:14:27.852Z,99245.28
2022-09-07T00:14:39.843Z,99242.91
2022-09-07T00:14:51.865Z,99242.03
2022-09-07T00:15:08.199Z,99241.22
2022-09-07T00:15:20.260Z,99243.53
2022-09-07T00:15:32.656Z,99243.53
2022-09-07T00:15:44.910Z,99237.38
2022-09-07T00:15:57.066Z,99244.84
2022-09-07T00:16:15.606Z,99243.78
2022-09-07T00:16:30.462Z,99241.72
2022-09-07T00:16:42.552Z,99246.78
2022-09-07T00:16:54.562Z,99239.56
2022-09-07T00:17:06.550Z,99243.88
2022-09-07T00:17:18.598Z,99237.38
2022-09-07T00:17:30.569Z,99236.53
2022-09-07T00:17:42.557Z,99237.13
2022-09-07T00:17:54.569Z,99238.84
2022-09-07T00:18:06.711Z,99237.72
2022-09-07T00:18:18.820Z,99240.50
2022-09-07T00:18:31.570Z,99239.06
2022-09-07T00:18:46.308Z,99236.53
2022-09-07T00:19:01.374Z,99238.25
2022-09-07T00:19:13.423Z,99240.88
2022-09-07T00:19:25.429Z,99240.72
2022-09-07T00:19:37.489Z,99239.06
2022-09-07T00:19:49.724Z,99243.53
2022-09-07T00:20:02.376Z,99233.66
2022-09-07T00:20:15.040Z,99240.50
2022-09-07T00:20:27.018Z,99238.56
2022-09-07T00:20:39.028Z,99238.44
2022-09-07T00:21:02.143Z,99237.34
2022-09-07T00:21:16.440Z,99242.41
2022-09-07T00:21:29.194Z,99241.41
2022-09-07T00:21:43.891Z,99244.78
2022-09-07T00:21:55.885Z,99235.03
2022-09-07T00:22:07.922Z,99246.47
2022-09-07T00:22:19.894Z,99233.97
2022-09-07T00:22:32.183Z,99238.38
2022-09-07T00:22:46.077Z,99236.59
2022-09-07T00:22:58.070Z,99244.38
2022-09-07T00:23:10.373Z,99238.97
2022-09-07T00:23:22.379Z,99235.63
2022-09-07T00:23:36.192Z,99235.63
2022-09-07T00:23:49.991Z,99240.91
2022-09-07T00:24:02.262Z,99238.28
2022-09-07T00:24:14.499Z,99231.31
2022-09-07T00:24:27.592Z,99240.91
2022-09-07T00:24:39.594Z,99233.97
2022-09-07T00:24:51.585Z,99238.53
2022-09-07T00:25:04.266Z,99235.91
2022-09-07T00:25:16.487Z,99234.19
2022-09-07T00:25:31.822Z,99235.91
2022-09-07T00:25:44.138Z,99233.97
2022-09-07T00:26:08.140Z,99233.97
2022-09-07T00:26:30.941Z,99234.81
2022-09-07T00:26:42.918Z,99232.03
2022-09-07T00:26:56.152Z,99236.34
2022-09-07T00:27:08.152Z,99225.06
2022-09-07T00:27:20.151Z,99234.69
2022-09-07T00:27:32.363Z,99240.69
2022-09-07T00:27:44.344Z,99236.22
2022-09-07T00:27:56.397Z,99231.78
2022-09-07T00:28:09.257Z,99229.84
2022-09-07T00:28:21.231Z,99233.31
2022-09-07T00:28:34.681Z,99237.53
2022-09-07T00:28:47.241Z,99239.19
2022-09-07T00:29:01.154Z,99229.47
2022-09-07T00:29:13.183Z,99229.31
2022-09-07T00:29:25.202Z,99234.63
2022-09-07T00:29:37.193Z,99232.84
2022-09-07T00:29:49.481Z,99237.97
2022-09-07T00:30:01.511Z,99237.97
2022-09-07T00:30:13.622Z,99236.19
2022-09-07T00:30:27.152Z,99236.03
2022-09-07T00:30:42.888Z,99248.28
2022-09-07T00:30:54.924Z,99235.78
2022-09-07T00:31:13.180Z,99243.72
2022-09-07T00:31:25.368Z,99236.75
2022-09-07T00:31:37.740Z,99240.25
2022-09-07T00:31:49.913Z,99242.75
2022-09-07T00:32:02.166Z,99239.16
2022-09-07T00:32:14.146Z,99239.16
2022-09-07T00:32:26.151Z,99239.16
2022-09-07T00:32:38.143Z,99239.16
2022-09-07T00:32:50.117Z,99233.75
2022-09-07T00:33:04.727Z,99238.16
2022-09-07T00:33:16.705Z,99235.53
2022-09-07T00:33:29.107Z,99239.16
2022-09-07T00:33:41.452Z,99239.16
2022-09-07T00:33:54.417Z,99238.44
2022-09-07T00:34:06.560Z,99242.75
2022-09-07T00:34:18.576Z,99235.78
2022-09-07T00:34:30.552Z,99236.75
2022-09-07T00:34:42.572Z,99239.38
2022-09-07T00:34:56.313Z,99234.09
2022-09-07T00:35:08.761Z,99237.72
2022-09-07T00:35:20.771Z,99242.03
2022-09-07T00:35:32.741Z,99238.69
2022-09-07T00:35:44.812Z,99236.03
2022-09-07T00:35:58.197Z,99239.38
2022-09-07T00:36:10.623Z,99232.44
2022-09-07T00:36:22.935Z,99237.72
2022-09-07T00:36:34.952Z,99234.97
2022-09-07T00:36:46.952Z,99239.38
2022-09-07T00:36:58.961Z,99235.78
2022-09-07T00:37:10.965Z,99236.63
2022-09-07T00:37:23.003Z,99236.63
2022-09-07T00:37:34.969Z,99236.63
2022-09-07T00:37:46.954Z,99233.88
2022-09-07T00:37:59.158Z,99233.88
2022-09-07T00:38:11.180Z,99228.56
2022-09-07T00:38:23.280Z,99233.88
2022-09-07T00:38:35.564Z,99234.56
2022-09-07T00:38:47.809Z,99230.94
2022-09-07T00:38:59.833Z,99234.44
2022-09-07T00:39:11.878Z,99233.59
2022-09-07T00:39:23.901Z,99230.00
2022-09-07T00:39:37.356Z,99233.59
2022-09-07T00:39:49.799Z,99236.94
2022-09-07T00:40:02.300Z,99233.59
2022-09-07T00:40:14.381Z,99230.00
2022-09-07T00:40:26.409Z,99231.66
2022-09-07T00:40:38.597Z,99234.31
2022-09-07T00:40:50.780Z,99227.47
2022-09-07T00:41:02.813Z,99226.88
2022-09-07T00:41:16.793Z,99226.66
2022-09-07T00:41:29.103Z,99231.94
2022-09-07T00:41:41.059Z,99226.06
2022-09-07T00:41:53.039Z,99231.47
2022-09-07T00:42:05.202Z,99228.09
2022-09-07T00:42:21.242Z,99222.97
2022-09-07T00:42:33.226Z,99230.31
2022-09-07T00:42:45.194Z,99225.16
2022-09-07T00:42:57.164Z,99222.38
2022-09-07T00:43:33.551Z,99222.38
2022-09-07T00:43:47.749Z,99224.31
2022-09-07T00:44:38.209Z,99220.50
2022-09-07T00:45:07.035Z,99218.03
2022-09-07T00:45:21.346Z,99217.94
2022-09-07T00:45:33.448Z,99217.69
2022-09-07T00:45:45.414Z,99216.00
2022-09-07T00:45:57.521Z,99218.53
2022-09-07T00:46:31.893Z,99212.41
2022-09-07T00:46:44.104Z,99215.78
2022-09-07T00:46:56.454Z,99214.91
2022-09-07T00:47:19.775Z,99217.44
2022-09-07T00:47:54.946Z,99218.84
2022-09-07T00:48:27.796Z,99219.13
2022-09-07T00:49:00.940Z,99211.19
2022-09-07T00:49:18.777Z,99213.84
2022-09-07T00:49:31.198Z,99209.41
2022-09-07T00:49:47.876Z,99210.22
2022-09-07T00:50:05.600Z,99214.41
2022-09-07T00:50:27.007Z,99204.69
2022-09-07T00:50:46.436Z,99211.41
2022-09-07T00:51:05.566Z,99209.47
2022-09-07T00:51:39.385Z,99201.41
2022-09-07T00:51:55.948Z,99202.13
2022-09-07T00:52:08.986Z,99198.41
2022-09-07T00:52:23.396Z,99198.41
2022-09-07T00:52:37.847Z,99194.06
2022-09-07T00:52:55.761Z,99191.44
2022-09-07T00:53:14.433Z,99194.78
2022-09-07T00:53:30.016Z,99190.19
2022-09-07T00:53:45.256Z,99183.97
2022-09-07T00:54:04.976Z,99183.97
2022-09-07T00:54:21.815Z,99180.34
2022-09-07T00:54:53.087Z,99186.84
2022-09-07T00:55:09.899Z,99190.47
2022-09-07T00:55:22.508Z,99184.22
2022-09-07T00:55:37.737Z,99182.28
2022-09-07T00:55:52.348Z,99183.00
2022-09-07T00:56:06.371Z,99182.28
2022-09-07T00:56:18.394Z,99183.97
2022-09-07T00:56:34.564Z,99184.69
2022-09-07T00:56:48.696Z,99179.50
2022-09-07T00:57:00.776Z,99178.69
2022-09-07T00:57:14.220Z,99173.41
2022-09-07T00:57:28.137Z,99176.16
2022-09-07T00:57:45.011Z,99172.53
2022-09-07T00:57:58.454Z,99176.03
2022-09-07T00:58:10.993Z,99176.75
2022-09-07T00:58:23.885Z,99178.69
2022-09-07T00:58:41.773Z,99179.41
2022-09-07T00:58:54.137Z,99176.75
2022-09-07T00:59:07.396Z,99183.69
2022-09-07T00:59:24.685Z,99180.09
2022-09-07T00:59:42.527Z,99174.81
2022-09-07T00:59:57.544Z,99185.38
2022-09-07T01:00:10.275Z,99186.22
2022-09-07T01:00:22.678Z,99184.41
2022-09-07T01:00:35.667Z,99181.06
2022-09-07T01:00:49.564Z,99179.28
2022-09-07T01:01:01.684Z,99180.09
2022-09-07T01:01:14.546Z,99184.41
2022-09-07T01:01:27.381Z,99180.09
2022-09-07T01:01:40.373Z,99180.09
2022-09-07T01:01:53.272Z,99181.75
2022-09-07T01:02:06.178Z,99176.47
2022-09-07T01:02:20.021Z,99172.19
2022-09-07T01:02:32.408Z,99176.47
2022-09-07T01:02:46.994Z,99179.13
2022-09-07T01:03:00.480Z,99178.16
2022-09-07T01:03:15.017Z,99171.19
2022-09-07T01:03:33.708Z,99170.63
2022-09-07T01:03:49.908Z,99169.78
2022-09-07T01:04:03.005Z,99174.22
2022-09-07T01:04:16.160Z,99177.81
2022-09-07T01:04:30.215Z,99175.56
2022-09-07T01:04:42.301Z,99173.72
2022-09-07T01:05:08.811Z,99171.19
2022-09-07T01:05:48.572Z,99178.41
2022-09-07T01:06:16.706Z,99171.59
2022-09-07T01:06:38.035Z,99170.16
2022-09-07T01:06:50.188Z,99169.41
2022-09-07T01:07:03.549Z,99172.34
2022-09-07T01:07:15.601Z,99173.03
2022-09-07T01:07:27.589Z,99174.00
2022-09-07T01:07:39.612Z,99172.06
2022-09-07T01:07:51.945Z,99175.56
2022-09-07T01:08:05.424Z,99169.56
2022-09-07T01:08:17.643Z,99176.19
2022-09-07T01:08:30.556Z,99173.44
2022-09-07T01:08:44.102Z,99168.00
2022-09-07T01:09:01.181Z,99174.00
2022-09-07T01:09:16.952Z,99177.03
2022-09-07T01:09:29.293Z,99171.63
2022-09-07T01:09:42.165Z,99173.53
2022-09-07T01:09:55.461Z,99169.69
2022-09-07T01:10:08.952Z,99173.06
2022-09-07T01:10:24.761Z,99171.13
2022-09-07T01:10:37.581Z,99167.44
2022-09-07T01:10:49.766Z,99177.84
2022-09-07T01:11:02.009Z,99169.81
2022-09-07T01:11:13.994Z,99167.03
2022-09-07T01:11:26.269Z,99171.34
2022-09-07T01:11:39.232Z,99180.13
2022-09-07T01:11:53.511Z,99179.03
2022-09-07T01:12:05.956Z,99174.47
2022-09-07T01:12:17.952Z,99171.81
2022-09-07T01:12:29.919Z,99169.19
2022-09-07T01:12:42.069Z,99171.69
2022-09-07T01:12:54.084Z,99178.91
2022-09-07T01:13:06.540Z,99169.31
2022-09-07T01:13:18.578Z,99161.25
2022-09-07T01:13:30.988Z,99172.53
2022-09-07T01:13:44.745Z,99171.59
2022-09-07T01:13:58.257Z,99170.72
2022-09-07T01:14:15.075Z,99175.44
2022-09-07T01:14:31.647Z,99171.81
2022-09-07T01:14:49.224Z,99164.59
2022-09-07T01:15:01.878Z,99170.16
2022-09-07T01:15:13.890Z,99168.72
2022-09-07T01:15:47.628Z,99174.75
2022-09-07T01:16:07.343Z,99167.78
2022-09-07T01:16:47.115Z,99171.84
2022-09-07T01:17:01.905Z,99177.84
2022-09-07T01:17:22.951Z,99172.47
2022-09-07T01:17:43.669Z,99179.09
2022-09-07T01:19:03.817Z,99174.25
2022-09-07T01:19:35.986Z,99188.09
2022-09-07T01:20:21.545Z,99182.69
2022-09-07T01:20:50.691Z,99190.09
2022-09-07T01:21:14.707Z,99193.69
2022-09-07T01:21:47.737Z,99188.41
2022-09-07T01:22:37.832Z,99196.34
2022-09-07T01:23:16.377Z,99191.53
2022-09-07T01:23:56.202Z,99192.94
2022-09-07T01:24:46.640Z,99189.09
2022-09-07T01:25:04.473Z,99190.63
2022-09-07T01:25:19.012Z,99194.97
2022-09-07T01:25:57.103Z,99196.78
2022-09-07T01:26:27.439Z,99190.78
2022-09-07T01:26:54.458Z,99200.50
2022-09-07T01:27:54.316Z,99193.53
2022-09-07T01:28:15.747Z,99197.28
2022-09-07T01:28:32.047Z,99192.84
2022-09-07T01:28:49.441Z,99191.03
2022-09-07T01:29:17.727Z,99192.94
2022-09-07T01:29:40.687Z,99196.56
2022-09-07T01:30:12.501Z,99201.63
2022-09-07T01:30:25.450Z,99198.84
2022-09-07T01:30:39.946Z,99197.03
2022-09-07T01:30:57.349Z,99197.75
2022-09-07T01:31:33.884Z,99199.34
2022-09-07T01:31:51.565Z,99200.16
2022-09-07T01:32:21.288Z,99203.75
2022-09-07T01:32:42.637Z,99196.81
2022-09-07T01:33:23.154Z,99195.13
2022-09-07T01:33:40.874Z,99197.03
2022-09-07T01:34:07.095Z,99196.09
2022-09-07T01:34:25.364Z,99202.09
2022-09-07T01:34:37.650Z,99199.34
2022-09-07T01:34:53.576Z,99202.09
2022-09-07T01:35:18.181Z,99205.69
2022-09-07T01:35:36.371Z,99203.75
2022-09-07T01:36:11.407Z,99203.75
2022-09-07T01:36:40.600Z,99215.78
2022-09-07T01:37:11.530Z,99204.94
2022-09-07T01:37:46.853Z,99213.34
2022-09-07T01:38:12.685Z,99211.41
2022-09-07T01:38:24.783Z,99213.06
2022-09-07T01:39:06.655Z,99214.75
2022-09-07T01:39:23.370Z,99209.47
2022-09-07T01:39:46.152Z,99214.75
2022-09-07T01:40:09.056Z,99209.47
2022-09-07T01:40:49.568Z,99213.06
2022-09-07T01:41:19.647Z,99216.69
2022-09-07T01:41:49.204Z,99213.34
2022-09-07T01:42:07.451Z,99218.84
2022-09-07T01:42:22.695Z,99216.34
2022-09-07T01:42:54.767Z,99212.97
2022-09-07T01:43:35.653Z,99215.50
2022-09-07T01:43:50.873Z,99214.56
2022-09-07T01:44:12.557Z,99218.84
2022-09-07T01:44:31.597Z,99218.84
2022-09-07T01:44:54.799Z,99221.63
2022-09-07T01:45:11.396Z,99220.78
2022-09-07T01:45:28.906Z,99218.16
2022-09-07T01:45:43.376Z,99218.84
2022-09-07T01:45:59.741Z,99213.56
2022-09-07T01:46:26.673Z,99215.97
2022-09-07T01:47:00.242Z,99211.41
2022-09-07T01:47:18.152Z,99213.06
2022-09-07T01:47:32.802Z,99206.97
2022-09-07T01:47:52.533Z,99218.34
2022-09-07T01:48:07.660Z,99212.34
2022-09-07T01:48:21.021Z,99208.06
2022-09-07T01:48:36.043Z,99212.47
2022-09-07T01:48:51.693Z,99212.75
2022-09-07T01:49:10.594Z,99213.56
2022-09-07T01:49:59.804Z,99217.19
2022-09-07T01:50:23.617Z,99214.56
2022-09-07T01:51:03.607Z,99217.44
2022-09-07T01:51:18.837Z,99219.13
2022-09-07T01:51:34.463Z,99217.44
2022-09-07T01:51:50.024Z,99216.84
2022-09-07T01:52:43.271Z,99218.16
2022-09-07T01:53:02.211Z,99215.00
2022-09-07T01:53:17.387Z,99218.34
2022-09-07T01:53:29.325Z,99216.44
2022-09-07T01:53:49.666Z,99216.44
2022-09-07T01:54:13.701Z,99220.28
2022-09-07T01:54:41.899Z,99227.50
2022-09-07T01:55:15.060Z,99227.50
2022-09-07T01:55:36.605Z,99223.53
2022-09-07T01:56:01.264Z,99219.91
2022-09-07T01:56:18.625Z,99224.34
2022-09-07T01:56:36.360Z,99219.06
2022-09-07T01:56:51.334Z,99223.63
2022-09-07T01:57:11.687Z,99224.47
2022-09-07T01:57:32.866Z,99222.81
2022-09-07T01:57:59.537Z,99222.22
2022-09-07T01:58:40.064Z,99229.44
2022-09-07T01:58:56.700Z,99226.06
2022-09-07T01:59:35.024Z,99230.41
2022-09-07T02:00:04.605Z,99226.78
2022-09-07T02:00:19.689Z,99229.69
2022-09-07T02:00:34.342Z,99230.53
2022-09-07T02:00:53.397Z,99232.34
2022-09-07T02:01:14.052Z,99236.91
2022-09-07T02:01:33.585Z,99232.44
2022-09-07T02:01:57.619Z,99235.22
2022-09-07T02:02:16.705Z,99234.50
2022-09-07T02:02:34.480Z,99238.56
2022-09-07T02:02:52.643Z,99234.00
2022-09-07T02:03:13.348Z,99240.25
2022-09-07T02:03:33.475Z,99233.75
2022-09-07T02:03:51.401Z,99240.47
2022-09-07T02:04:12.619Z,99240.19
2022-09-07T02:05:02.040Z,99242.59
2022-09-07T02:05:20.672Z,99245.97
2022-09-07T02:06:05.397Z,99246.66
2022-09-07T02:06:23.659Z,99252.66
2022-09-07T02:06:57.235Z,99264.69
2022-09-07T02:07:14.706Z,99266.75
2022-09-07T02:07:29.383Z,99268.09
2022-09-07T02:07:50.993Z,99277.47
2022-09-07T02:08:14.945Z,99282.16
2022-09-07T02:08:59.089Z,99293.44
2022-09-07T02:09:21.028Z,99294.28
2022-09-07T02:09:51.293Z,99291.94
2022-09-07T02:10:27.502Z,99303.31
2022-09-07T02:11:12.405Z,99296.50
2022-09-07T02:11:32.848Z,99297.69
2022-09-07T02:11:48.054Z,99295.66
2022-09-07T02:12:06.875Z,99292.50
2022-09-07T02:12:30.605Z,99293.81
2022-09-07T02:12:57.866Z,99283.88
2022-09-07T02:13:22.117Z,99290.94
2022-09-07T02:13:36.137Z,99285.22
2022-09-07T02:14:01.226Z,99286.88
2022-09-07T02:14:24.848Z,99288.44
2022-09-07T02:14:41.528Z,99290.22
2022-09-07T02:15:02.520Z,99301.75
2022-09-07T02:15:22.339Z,99300.78
2022-09-07T02:15:45.812Z,99295.78
2022-09-07T02:16:00.316Z,99300.06
2022-09-07T02:16:26.732Z,99294.78
2022-09-07T02:16:48.541Z,99300.56
2022-09-07T02:17:07.260Z,99300.31
2022-09-07T02:17:29.076Z,99293.22
2022-09-07T02:17:49.720Z,99298.28
2022-09-07T02:18:05.698Z,99297.19
2022-09-07T02:18:20.934Z,99295.97
2022-09-07T02:18:39.839Z,99299.44
2022-09-07T02:18:56.765Z,99304.97
2022-09-07T02:19:14.048Z,99308.13
2022-09-07T02:19:32.790Z,99309.28
2022-09-07T02:19:52.787Z,99317.81
2022-09-07T02:20:23.434Z,99313.25
2022-09-07T02:20:38.291Z,99307.75
2022-09-07T02:20:54.516Z,99314.84
2022-09-07T02:21:09.099Z,99309.19
2022-09-07T02:21:27.551Z,99306.28
2022-09-07T02:21:43.922Z,99314.00
2022-09-07T02:22:08.033Z,99304.88
2022-09-07T02:22:27.144Z,99308.94
2022-09-07T02:22:44.653Z,99304.38
2022-09-07T02:23:02.357Z,99311.31
2022-09-07T02:23:20.120Z,99304.97
2022-09-07T02:23:39.617Z,99308.34
2022-09-07T02:23:56.928Z,99311.69
2022-09-07T02:24:17.223Z,99313.00
2022-09-07T02:24:35.830Z,99315.88
2022-09-07T02:24:52.678Z,99314.22
2022-09-07T02:25:07.125Z,99317.69
2022-09-07T02:25:26.052Z,99312.84
2022-09-07T02:25:45.335Z,99309.16
2022-09-07T02:26:04.542Z,99312.63
2022-09-07T02:26:22.327Z,99312.38
2022-09-07T02:26:38.857Z,99304.31
2022-09-07T02:26:53.556Z,99312.72
2022-09-07T02:27:14.956Z,99311.63
2022-09-07T02:27:34.470Z,99317.50
2022-09-07T02:27:50.967Z,99308.59
2022-09-07T02:28:09.930Z,99317.97
2022-09-07T02:28:30.576Z,99307.16
2022-09-07T02:28:43.050Z,99314.81
2022-09-07T02:28:57.956Z,99311.34
2022-09-07T02:29:09.954Z,99311.22
2022-09-07T02:29:22.344Z,99314.56
2022-09-07T02:29:35.428Z,99310.94
2022-09-07T02:29:47.597Z,99301.34
2022-09-07T02:29:59.701Z,99301.25
2022-09-07T02:30:12.344Z,99303.72
2022-09-07T02:30:24.629Z,99300.97
2022-09-07T02:30:37.200Z,99304.31
2022-09-07T02:30:49.282Z,99303.22
2022-09-07T02:31:01.973Z,99302.16
2022-09-07T02:31:14.389Z,99297.69
2022-09-07T02:31:26.510Z,99303.69
2022-09-07T02:31:38.559Z,99304.41
2022-09-07T02:31:51.552Z,99300.81
2022-09-07T02:32:04.251Z,99304.16
2022-09-07T02:32:16.284Z,99303.19
2022-09-07T02:32:28.532Z,99303.06
2022-09-07T02:32:40.918Z,99306.66
2022-09-07T02:32:52.995Z,99300.41
2022-09-07T02:33:06.015Z,99304.88
2022-09-07T02:33:18.176Z,99302.25
2022-09-07T02:33:30.920Z,99296.94
2022-09-07T02:33:43.010Z,99298.59
2022-09-07T02:33:55.384Z,99296.94
2022-09-07T02:34:07.772Z,99291.38
2022-09-07T02:34:20.069Z,99286.09
2022-09-07T02:34:32.713Z,99286.84
2022-09-07T02:34:46.091Z,99290.19
2022-09-07T02:34:58.142Z,99296.19
2022-09-07T02:35:10.399Z,99295.25
2022-09-07T02:35:22.845Z,99298.72
2022-09-07T02:35:35.369Z,99294.25
2022-09-07T02:35:47.517Z,99295.94
2022-09-07T02:36:01.536Z,99297.63
2022-09-07T02:36:17.497Z,99299.31
2022-09-07T02:36:35.187Z,99297.38
2022-09-07T02:36:50.972Z,99299.03
2022-09-07T02:37:06.129Z,99300.72
2022-09-07T02:37:19.704Z,99298.78
2022-09-07T02:37:33.628Z,99295.16
2022-09-07T02:37:48.790Z,99294.09
2022-09-07T02:38:04.384Z,99299.94
2022-09-07T02:38:16.492Z,99297.28
2022-09-07T02:38:28.731Z,99301.63
2022-09-07T02:38:41.142Z,99295.34
2022-09-07T02:38:53.367Z,99296.06
2022-09-07T02:39:05.501Z,99297.75
2022-09-07T02:39:17.988Z,99303.03
2022-09-07T02:39:30.433Z,99296.75
2022-09-07T02:39:42.509Z,99301.94
2022-09-07T02:39:55.095Z,99298.47
2022-09-07T02:40:08.474Z,99301.09
2022-09-07T02:40:20.525Z,99301.09
2022-09-07T02:40:32.722Z,99305.41
2022-09-07T02:40:53.821Z,99306.28
2022-09-07T02:41:26.414Z,99297.47
2022-09-07T02:41:41.559Z,99296.66
2022-09-07T02:41:53.521Z,99293.28
2022-09-07T02:42:05.833Z,99291.34
2022-09-07T02:42:17.845Z,99299.16
2022-09-07T02:42:35.056Z,99293.88
2022-09-07T02:42:48.448Z,99296.41
2022-09-07T02:43:04.025Z,99292.75
2022-09-07T02:43:16.048Z,99288.47
2022-09-07T02:43:29.810Z,99292.75
2022-09-07T02:43:41.812Z,99284.00
2022-09-07T02:43:53.825Z,99290.94
2022-09-07T02:44:15.941Z,99286.66
2022-09-07T02:44:32.482Z,99286.66
2022-09-07T02:44:46.481Z,99286.66
2022-09-07T02:44:59.181Z,99285.81
2022-09-07T02:45:13.494Z,99283.28
2022-09-07T02:45:25.911Z,99286.66
2022-09-07T02:45:51.994Z,99281.94
2022-09-07T02:46:06.919Z,99281.09
2022-09-07T02:46:28.001Z,99281.09
2022-09-07T02:47:06.919Z,99275.81
2022-09-07T02:47:48.481Z,99274.59
2022-09-07T02:48:16.016Z,99276.13
2022-09-07T02:48:36.274Z,99273.34
2022-09-07T02:49:08.061Z,99271.41
2022-09-07T02:49:38.396Z,99273.91
2022-09-07T02:50:16.485Z,99270.72
2022-09-07T02:50:47.188Z,99268.06
2022-09-07T02:51:17.749Z,99271.66
2022-09-07T02:51:56.796Z,99273.34
2022-09-07T02:52:40.197Z,99278.38
2022-09-07T02:53:06.424Z,99279.06
2022-09-07T02:53:31.062Z,99272.66
2022-09-07T02:54:05.801Z,99277.84
2022-09-07T02:54:42.777Z,99268.94
2022-09-07T02:54:57.399Z,99275.31
2022-09-07T02:55:21.973Z,99271.97
2022-09-07T02:55:51.918Z,99274.75
2022-09-07T02:56:06.179Z,99275.84
2022-09-07T02:56:45.184Z,99280.31
2022-09-07T02:57:04.307Z,99273.59
2022-09-07T02:57:34.693Z,99269.66
2022-09-07T02:57:55.327Z,99270.53
2022-09-07T02:58:12.922Z,99265.06
2022-09-07T02:58:47.523Z,99263.28
2022-09-07T02:59:06.214Z,99266.19
2022-09-07T02:59:36.660Z,99265.94
2022-09-07T02:59:56.360Z,99263.41
2022-09-07T03:00:13.123Z,99264.38
2022-09-07T03:00:27.680Z,99258.25
2022-09-07T03:00:58.352Z,99257.53
2022-09-07T03:01:28.771Z,99260.91
2022-09-07T03:02:05.438Z,99264.94
2022-09-07T03:02:23.124Z,99270.94
2022-09-07T03:02:53.637Z,99268.31
2022-09-07T03:03:23.554Z,99264.72
2022-09-07T03:03:46.434Z,99259.41
2022-09-07T03:04:16.538Z,99270.00
2022-09-07T03:04:40.404Z,99271.34
2022-09-07T03:05:08.752Z,99268.84
2022-09-07T03:05:31.199Z,99270.53
2022-09-07T03:05:50.806Z,99272.19
2022-09-07T03:06:08.586Z,99275.81
2022-09-07T03:06:29.375Z,99274.13
2022-09-07T03:06:49.971Z,99276.66
2022-09-07T03:07:17.294Z,99272.19
2022-09-07T03:07:37.544Z,99273.88
2022-09-07T03:08:30.525Z,99273.88
2022-09-07T03:08:51.013Z,99276.25
2022-09-07T03:09:10.242Z,99277.78
2022-09-07T03:09:27.980Z,99279.59
2022-09-07T03:09:45.509Z,99277.94
2022-09-07T03:09:59.673Z,99281.41
2022-09-07T03:10:13.880Z,99278.88
2022-09-07T03:10:26.645Z,99277.06
2022-09-07T03:10:40.563Z,99278.88
2022-09-07T03:10:54.096Z,99281.53
2022-09-07T03:11:07.688Z,99278.88
2022-09-07T03:11:20.042Z,99270.13
2022-09-07T03:11:32.138Z,99272.78
2022-09-07T03:11:44.620Z,99271.94
2022-09-07T03:11:57.116Z,99273.59
2022-09-07T03:12:10.169Z,99275.28
2022-09-07T03:12:22.560Z,99274.31
2022-09-07T03:12:46.836Z,99270.72
2022-09-07T03:12:58.904Z,99261.06
2022-09-07T03:13:23.235Z,99265.53
2022-09-07T03:13:35.253Z,99259.41
2022-09-07T03:13:47.223Z,99262.06
2022-09-07T03:14:19.610Z,99258.44
2022-09-07T03:14:36.175Z,99269.13
2022-09-07T03:14:48.450Z,99268.59
2022-09-07T03:15:00.428Z,99270.38
2022-09-07T03:15:14.578Z,99269.53
2022-09-07T03:15:28.140Z,99263.28
2022-09-07T03:15:40.257Z,99263.41
2022-09-07T03:15:55.986Z,99266.91
2022-09-07T03:16:13.313Z,99263.28
2022-09-07T03:16:25.406Z,99257.84
2022-09-07T03:16:37.378Z,99263.28
2022-09-07T03:16:51.418Z,99262.44
2022-09-07T03:17:03.522Z,99266.91
2022-09-07T03:17:16.025Z,99267.72
2022-09-07T03:17:28.051Z,99266.91
2022-09-07T03:17:41.124Z,99268.59
2022-09-07T03:17:53.615Z,99263.28
2022-09-07T03:18:05.752Z,99263.28
2022-09-07T03:18:19.312Z,99271.22
2022-09-07T03:18:31.435Z,99275.66
2022-09-07T03:18:44.253Z,99274.00
2022-09-07T03:18:56.204Z,99262.59
2022-09-07T03:19:08.174Z,99268.84
2022-09-07T03:19:20.178Z,99269.94
2022-09-07T03:19:32.157Z,99270.78
2022-09-07T03:19:44.195Z,99272.72
2022-09-07T03:19:56.166Z,99271.03
2022-09-07T03:20:08.915Z,99273.81
2022-09-07T03:20:22.858Z,99273.81
2022-09-07T03:20:34.825Z,99266.84
2022-09-07T03:20:47.055Z,99267.66
2022-09-07T03:20:59.038Z,99260.97
2022-09-07T03:21:11.556Z,99264.31
2022-09-07T03:21:23.883Z,99266.00
2022-09-07T03:21:35.899Z,99272.13
2022-09-07T03:21:48.535Z,99268.78
2022-09-07T03:22:00.528Z,99266.00
2022-09-07T03:22:12.509Z,99261.53
2022-09-07T03:22:24.516Z,99263.25
2022-09-07T03:22:36.520Z,99265.72
2022-09-07T03:22:51.273Z,99267.41
2022-09-07T03:23:03.298Z,99271.88
2022-09-07T03:23:15.291Z,99263.78
2022-09-07T03:23:27.463Z,99265.47
2022-09-07T03:23:39.494Z,99268.13
2022-09-07T03:23:52.020Z,99269.94
2022-09-07T03:24:04.509Z,99270.78
2022-09-07T03:24:16.573Z,99275.06
2022-09-07T03:24:28.657Z,99274.13
2022-09-07T03:24:40.938Z,99278.47
2022-09-07T03:24:52.899Z,99281.81
2022-09-07T03:25:05.953Z,99280.81